Philadelphia, Pennsylvania
Traffic Map
Current Weather Conditions
Philadelphia, Pennsylvania
Overcast
Overcast
-6°
Feels Like: -11°
Wind Chill: -11° Ceiling: 9000
Heat Index: -6° Visibility: 10mi
Dew Point: -11° Wind: 9mph
Humidity: 66% Direction: 320° (NW)
Pressure: 30.37in Gusts: 0mph
Raw Report DataKPHL 060154Z 32008KT 10SM SCT060 OVC090 M06/M11 A3037 RMK AO2 PRESRR SLP282 T10561111
Traffic Incident Summary
Active as of:
Severity:
Category:
InformationThere was an issue retrieving the traffic information for this location. Please try a different location or try again shortly.
Advertisements
Track Severe Weather on mobile